Time;durP1;ratioP1;P1;durP2;ratioP2;P2;SDS_P1;SDS_P2;PMS_P1;PMS_P2;Temp;Humidity;BMP_temperature;BMP_pressure;BME280_temperature;BME280_humidity;BME280_pressure;Samples;Min_cycle;Max_cycle;Signal;HPM_P1;HPM_P2
2022/03/04 00:02:23;;;;;;;73.50;28.50;;;;;;;-1.07;71.24;100692.60;53074;1270;1016632;-77
2022/03/04 00:04:55;;;;;;;67.90;28.80;;;;;;;-1.17;71.36;100688.98;52986;1270;1016359;-76
2022/03/04 00:07:26;;;;;;;75.60;30.20;;;;;;;-1.22;71.33;100685.99;52903;1270;1316167;-76
2022/03/04 00:09:57;;;;;;;70.60;29.10;;;;;;;-1.22;71.58;100690.54;52939;1271;1016109;-77
2022/03/04 00:12:31;;;;;;;73.40;30.90;;;;;;;-1.24;71.64;100689.20;52863;1274;1019295;-77
2022/03/04 00:15:02;;;;;;;71.30;31.30;;;;;;;-1.24;71.62;100687.09;52893;1271;1016422;-77
2022/03/04 00:17:34;;;;;;;78.10;33.40;;;;;;;-1.21;71.72;100686.70;52963;1271;1016180;-76
2022/03/04 00:20:07;;;;;;;86.50;33.90;;;;;;;-1.20;71.74;100687.09;52911;1271;1016339;-76
2022/03/04 00:22:38;;;;;;;78.20;33.50;;;;;;;-1.18;71.95;100680.22;53020;1271;1016055;-76
2022/03/04 00:25:10;;;;;;;82.80;34.80;;;;;;;-1.17;71.84;100681.09;52916;1274;1016704;-76
2022/03/04 00:27:42;;;;;;;80.10;32.70;;;;;;;-1.15;71.91;100690.00;53061;1271;1017016;-75
2022/03/04 00:30:18;;;;;;;84.60;34.80;;;;;;;-1.15;72.14;100686.63;52870;1271;1015877;-75
2022/03/04 00:32:50;;;;;;;76.80;32.60;;;;;;;-1.14;72.03;100691.88;53079;1271;1016432;-76
2022/03/04 00:35:22;;;;;;;89.70;35.30;;;;;;;-1.12;72.29;100689.78;52945;1273;1016370;-75
2022/03/04 00:37:54;;;;;;;83.70;34.40;;;;;;;-1.12;72.20;100685.78;53048;1271;1016237;-75
2022/03/04 00:40:25;;;;;;;86.10;34.30;;;;;;;-1.08;72.33;100684.06;52967;1271;1016212;-75
2022/03/04 00:42:57;;;;;;;83.20;35.60;;;;;;;-1.07;72.42;100685.71;53001;1273;1016930;-76
2022/03/04 00:45:28;;;;;;;80.20;34.10;;;;;;;-1.07;72.43;100683.75;53002;1273;1016372;-76
2022/03/04 00:48:00;;;;;;;74.40;32.40;;;;;;;-1.05;72.45;100678.74;52934;1270;1018483;-75
2022/03/04 00:50:32;;;;;;;74.90;30.60;;;;;;;-1.02;72.64;100680.86;52932;1271;1016209;-76
2022/03/04 00:53:03;;;;;;;74.40;31.60;;;;;;;-1.00;72.70;100678.05;52930;1271;1016782;-75
2022/03/04 00:55:38;;;;;;;77.10;31.30;;;;;;;-0.98;72.85;100681.57;53028;1271;1015948;-75
2022/03/04 00:58:10;;;;;;;83.80;35.00;;;;;;;-0.97;72.88;100671.63;53055;1271;1016425;-75
2022/03/04 01:00:42;;;;;;;88.40;37.30;;;;;;;-0.95;73.08;100669.42;52968;1271;1016023;-75
2022/03/04 01:03:13;;;;;;;83.00;35.50;;;;;;;-0.92;72.99;100670.46;53002;1271;1017080;-75
2022/03/04 01:05:45;;;;;;;89.40;36.00;;;;;;;-0.90;72.86;100664.98;52983;1273;1015930;-75
2022/03/04 01:08:16;;;;;;;76.70;32.00;;;;;;;-0.89;73.01;100667.48;52899;1269;1016431;-75
2022/03/04 01:10:48;;;;;;;65.10;26.20;;;;;;;-0.86;73.17;100663.73;53055;1271;1018416;-75
2022/03/04 01:13:21;;;;;;;73.30;28.90;;;;;;;-0.83;73.29;100665.36;53100;1270;1016126;-76
2022/03/04 01:15:54;;;;;;;64.40;24.50;;;;;;;-0.82;73.47;100667.02;53015;1270;1016423;-74
2022/03/04 01:18:26;;;;;;;74.80;25.50;;;;;;;-0.79;73.56;100667.02;52955;1270;1016244;-75
2022/03/04 01:20:57;;;;;;;61.80;24.70;;;;;;;-0.77;73.59;100669.20;53045;1270;1016527;-76
2022/03/04 01:23:28;;;;;;;64.60;27.70;;;;;;;-0.74;73.60;100666.92;52948;1270;1016588;-76
2022/03/04 01:25:59;;;;;;;67.10;26.00;;;;;;;-0.71;73.63;100665.61;53051;1270;1016489;-75
2022/03/04 01:28:31;;;;;;;67.60;26.20;;;;;;;-0.68;73.60;100669.91;52892;1270;1016605;-76
2022/03/04 01:31:02;;;;;;;62.50;24.60;;;;;;;-0.66;73.58;100667.64;52945;1270;1016550;-76
2022/03/04 01:33:33;;;;;;;58.30;22.40;;;;;;;-0.63;73.79;100664.57;53050;1270;1019340;-76
2022/03/04 01:36:06;;;;;;;54.70;21.70;;;;;;;-0.62;73.85;100672.65;52962;1270;1016566;-75
2022/03/04 01:38:37;;;;;;;65.50;25.40;;;;;;;-0.61;73.88;100665.83;53049;1270;1016373;-75
2022/03/04 01:41:09;;;;;;;61.50;23.60;;;;;;;-0.60;73.91;100664.64;52911;1270;1015948;-75
2022/03/04 01:43:43;;;;;;;64.20;24.10;;;;;;;-0.60;74.09;100658.46;53023;1271;1016527;-75
2022/03/04 01:46:17;;;;;;;65.60;24.30;;;;;;;-0.59;74.39;100665.73;53067;1270;1016497;-75
2022/03/04 01:48:49;;;;;;;65.60;23.80;;;;;;;-0.60;74.33;100659.79;52976;1270;1016244;-76
2022/03/04 01:51:24;;;;;;;60.20;23.10;;;;;;;-0.60;74.29;100661.98;52914;1270;1016422;-75
2022/03/04 01:53:55;;;;;;;66.20;25.60;;;;;;;-0.59;74.38;100657.99;52981;1270;1016003;-76
2022/03/04 01:56:28;;;;;;;64.70;26.30;;;;;;;-0.58;74.31;100656.33;53013;1270;1016732;-77
2022/03/04 01:59:00;;;;;;;64.40;26.20;;;;;;;-0.56;74.44;100657.98;52928;1270;1016857;-76
2022/03/04 02:01:32;;;;;;;61.50;25.70;;;;;;;-0.56;74.44;100658.05;52945;1270;1016363;-77
2022/03/04 02:04:04;;;;;;;61.60;23.70;;;;;;;-0.55;74.43;100657.13;52962;1270;1016183;-76
2022/03/04 02:06:36;;;;;;;65.40;26.30;;;;;;;-0.53;74.58;100657.59;52911;1270;1017455;-75
2022/03/04 02:09:08;;;;;;;66.90;26.20;;;;;;;-0.52;74.59;100652.50;52924;1270;1016430;-76
2022/03/04 02:11:43;;;;;;;63.00;27.40;;;;;;;-0.50;74.53;100652.58;52985;1270;1016915;-76
2022/03/04 02:14:15;;;;;;;65.20;27.40;;;;;;;-0.49;74.66;100651.79;53060;1270;1018232;-76
2022/03/04 02:16:48;;;;;;;73.40;28.40;;;;;;;-0.47;74.60;100653.20;53058;1270;1019183;-75
2022/03/04 02:19:22;;;;;;;72.00;27.40;;;;;;;-0.45;74.82;100651.85;52880;1270;1016373;-76
2022/03/04 02:21:56;;;;;;;68.80;29.90;;;;;;;-0.43;74.68;100651.06;52956;1270;1016396;-77
2022/03/04 02:24:29;;;;;;;67.50;26.40;;;;;;;-0.42;74.75;100653.73;53063;1270;1016595;-76
2022/03/04 02:27:03;;;;;;;63.50;25.40;;;;;;;-0.43;75.49;100656.47;53055;1270;1016241;-76
2022/03/04 02:29:35;;;;;;;61.30;24.10;;;;;;;-0.47;75.68;100655.23;52898;1270;1016117;-75
2022/03/04 02:32:08;;;;;;;64.20;27.00;;;;;;;-0.50;75.71;100655.24;53099;1270;1016597;-75
2022/03/04 02:34:42;;;;;;;68.10;25.70;;;;;;;-0.52;75.78;100656.48;52920;1270;1016690;-74
2022/03/04 02:37:13;;;;;;;69.50;29.00;;;;;;;-0.54;75.81;100650.86;53052;1270;1016310;-75
2022/03/04 02:39:44;;;;;;;63.80;24.70;;;;;;;-0.57;76.33;100656.58;52948;1270;1016134;-76
2022/03/04 02:42:15;;;;;;;61.10;22.00;;;;;;;-0.59;76.42;100662.85;53088;1270;1017504;-75
2022/03/04 02:44:46;;;;;;;63.90;27.70;;;;;;;-0.63;77.27;100664.89;53033;1270;1016998;-75
2022/03/04 02:47:18;;;;;;;63.90;25.70;;;;;;;-0.69;77.40;100657.93;53229;1270;1016580;-76
2022/03/04 02:49:49;;;;;;;67.10;26.00;;;;;;;-0.72;77.43;100661.84;53287;1270;1016503;-75
2022/03/04 02:52:21;;;;;;;64.40;25.70;;;;;;;-0.75;77.90;100664.58;53067;1270;1017371;-75
2022/03/04 02:54:52;;;;;;;66.10;27.40;;;;;;;-0.78;77.45;100663.88;53031;1270;1016606;-75
2022/03/04 02:57:24;;;;;;;70.40;28.20;;;;;;;-0.78;77.31;100661.36;52992;1270;1016146;-75
2022/03/04 02:59:55;;;;;;;66.10;24.50;;;;;;;-0.77;77.64;100673.20;53140;1270;1016267;-75
2022/03/04 03:02:26;;;;;;;65.20;24.10;;;;;;;-0.78;77.82;100672.16;52942;1270;1016288;-75
2022/03/04 03:04:57;;;;;;;58.80;24.20;;;;;;;-0.80;78.33;100672.18;53084;1270;1016296;-75
2022/03/04 03:07:29;;;;;;;62.90;24.40;;;;;;;-0.83;78.56;100676.88;52922;1270;1016627;-76
2022/03/04 03:10:00;;;;;;;72.90;27.70;;;;;;;-0.84;78.06;100671.95;52996;1270;1016429;-76
2022/03/04 03:12:32;;;;;;;70.50;28.90;;;;;;;-0.83;78.39;100668.04;52946;1273;1016040;-76
2022/03/04 03:15:03;;;;;;;68.10;25.40;;;;;;;-0.85;78.74;100669.83;53102;1261;1018724;-62
2022/03/04 03:17:35;;;;;;;66.30;27.70;;;;;;;-0.86;78.62;100680.48;52650;1271;1016496;-62
2022/03/04 03:20:09;;;;;;;64.10;24.40;;;;;;;-0.87;79.13;100684.08;54033;1271;1015900;-63
2022/03/04 03:22:40;;;;;;;68.10;27.20;;;;;;;-0.88;79.01;100674.77;52599;1271;1016272;-62
2022/03/04 03:25:12;;;;;;;64.80;27.30;;;;;;;-0.89;79.10;100674.53;52726;1271;1019054;-62
2022/03/04 03:27:43;;;;;;;71.00;28.40;;;;;;;-0.91;79.67;100676.65;52720;1270;1016338;-63
2022/03/04 03:30:15;;;;;;;66.90;27.40;;;;;;;-0.93;79.59;100672.33;52550;1271;1020178;-63
2022/03/04 03:32:46;;;;;;;71.10;28.90;;;;;;;-0.94;79.43;100669.20;54569;1270;1015976;-62
2022/03/04 03:35:17;;;;;;;75.70;31.50;;;;;;;-0.94;79.30;100667.17;54608;1271;1015154;-63
2022/03/04 03:37:48;;;;;;;73.40;28.30;;;;;;;-0.95;79.47;100669.91;54600;1271;1016242;-63
2022/03/04 03:40:20;;;;;;;74.50;31.10;;;;;;;-0.96;79.43;100665.21;53792;1270;1016072;-63
2022/03/04 03:42:51;;;;;;;73.30;31.20;;;;;;;-0.94;79.21;100666.47;52575;1271;1016836;-62
2022/03/04 03:45:22;;;;;;;87.30;34.40;;;;;;;-0.92;79.26;100669.43;52650;1271;1015931;-62
2022/03/04 03:47:54;;;;;;;86.00;34.30;;;;;;;-0.89;79.23;100664.65;52628;1271;1017397;-63
2022/03/04 03:50:25;;;;;;;81.80;32.10;;;;;;;-0.86;79.28;100665.36;52606;1271;1016310;-62
2022/03/04 03:52:56;;;;;;;82.30;31.80;;;;;;;-0.84;79.31;100664.97;52702;1271;1017548;-62
2022/03/04 03:55:27;;;;;;;72.90;31.30;;;;;;;-0.81;79.30;100661.30;52644;1271;1016345;-64
2022/03/04 03:57:59;;;;;;;70.90;28.20;;;;;;;-0.79;79.24;100664.42;52717;1271;1018313;-64
2022/03/04 04:00:31;;;;;;;78.40;32.30;;;;;;;-0.78;79.22;100663.56;52602;1271;1016074;-63
2022/03/04 04:03:02;;;;;;;77.80;32.10;;;;;;;-0.76;79.32;100664.66;52727;1271;1016392;-63
2022/03/04 04:05:35;;;;;;;76.50;31.00;;;;;;;-0.73;79.30;100666.16;52694;1271;1018299;-64
2022/03/04 04:08:07;;;;;;;75.50;29.50;;;;;;;-0.71;79.23;100663.71;52820;1271;1018182;-64
2022/03/04 04:10:38;;;;;;;84.00;33.20;;;;;;;-0.70;79.22;100662.85;52806;1271;1020202;-64
2022/03/04 04:13:09;;;;;;;80.50;34.20;;;;;;;-0.68;79.29;100660.27;52614;1271;1018555;-64
2022/03/04 04:15:41;;;;;;;85.10;34.80;;;;;;;-0.68;79.35;100660.02;52663;1271;1016095;-62
2022/03/04 04:18:12;;;;;;;87.20;35.60;;;;;;;-0.67;79.38;100655.89;52738;1270;1016723;-63
2022/03/04 04:20:44;;;;;;;72.50;29.90;;;;;;;-0.66;79.39;100658.23;52646;1271;1016529;-62
2022/03/04 04:23:17;;;;;;;66.90;28.70;;;;;;;-0.66;79.52;100660.73;52646;1271;1016524;-63
2022/03/04 04:25:48;;;;;;;73.40;28.10;;;;;;;-0.66;79.36;100663.48;52747;1271;1016626;-63
2022/03/04 04:28:21;;;;;;;78.60;31.30;;;;;;;-0.66;79.46;100663.32;52690;1271;1016524;-64
2022/03/04 04:30:53;;;;;;;73.90;28.90;;;;;;;-0.65;79.52;100660.66;52642;1270;1015990;-63
2022/03/04 04:33:26;;;;;;;78.20;32.40;;;;;;;-0.63;79.41;100655.64;52644;1271;1016719;-63
2022/03/04 04:35:57;;;;;;;81.10;32.10;;;;;;;-0.62;79.47;100657.60;52847;1271;1015959;-63
2022/03/04 04:38:28;;;;;;;76.60;30.70;;;;;;;-0.59;79.53;100663.08;52893;1271;1016703;-63
2022/03/04 04:40:59;;;;;;;94.20;34.20;;;;;;;-0.59;79.53;100659.00;52868;1271;1016824;-63
2022/03/04 04:43:31;;;;;;;85.40;32.70;;;;;;;-0.57;79.59;100660.96;52670;1271;1016642;-65
2022/03/04 04:46:02;;;;;;;89.10;33.80;;;;;;;-0.56;79.52;100662.53;52598;1271;1016259;-63
2022/03/04 04:48:34;;;;;;;70.90;27.60;;;;;;;-0.56;79.58;100664.40;52800;1271;1016026;-64
2022/03/04 04:51:05;;;;;;;94.30;34.70;;;;;;;-0.56;79.60;100668.64;52809;1271;1016274;-63
2022/03/04 04:53:38;;;;;;;87.10;32.90;;;;;;;-0.57;79.72;100665.52;52562;1271;1016866;-63
2022/03/04 04:56:09;;;;;;;90.00;36.40;;;;;;;-0.57;79.67;100667.55;52675;1270;1016716;-64
2022/03/04 04:58:41;;;;;;;98.00;39.10;;;;;;;-0.56;79.64;100668.17;52567;1270;1015716;-64
2022/03/04 05:01:12;;;;;;;85.50;32.60;;;;;;;-0.55;79.75;100666.45;52660;1271;1016537;-63
2022/03/04 05:03:44;;;;;;;88.90;34.70;;;;;;;-0.55;79.95;100664.80;52624;1270;1016428;-64
2022/03/04 05:06:15;;;;;;;80.50;31.90;;;;;;;-0.56;79.96;100660.58;52581;1271;1016057;-65
2022/03/04 05:08:46;;;;;;;78.50;29.90;;;;;;;-0.57;80.01;100663.86;52591;1271;1015695;-63
2022/03/04 05:11:18;;;;;;;78.70;31.30;;;;;;;-0.57;79.95;100664.48;52755;1271;1018051;-64
2022/03/04 05:13:49;;;;;;;73.30;28.30;;;;;;;-0.56;79.99;100659.46;45441;1270;2016233;-64
2022/03/04 05:16:21;;;;;;;71.60;29.20;;;;;;;-0.54;79.94;100658.54;40276;1271;2016631;-63
2022/03/04 05:18:54;;;;;;;75.70;31.30;;;;;;;-0.54;80.02;100661.13;40181;1271;2018127;-64
2022/03/04 05:21:26;;;;;;;73.40;30.20;;;;;;;-0.51;80.07;100664.25;40191;1270;2015913;-62
2022/03/04 05:24:00;;;;;;;63.60;27.10;;;;;;;-0.48;79.97;100661.35;40738;1271;2016338;-63
2022/03/04 05:26:35;;;;;;;63.80;26.50;;;;;;;-0.46;80.08;100662.52;39964;1271;2015419;-62
2022/03/04 05:29:09;;;;;;;65.70;27.10;;;;;;;-0.46;80.23;100662.60;39285;1271;2015926;-66
2022/03/04 05:31:42;;;;;;;77.90;29.30;;;;;;;-0.45;80.09;100663.36;39274;1271;2020334;-58
2022/03/04 05:34:12;;;;;;;77.90;29.30;;;;;;;-0.44;80.21;100668.32;40384;1268;2016147;-59
2022/03/04 05:36:45;;;;;;;76.00;35.40;;;;;;;-0.43;80.19;100666.02;39671;1271;2016019;-59
2022/03/04 05:39:18;;;;;;;72.00;28.30;;;;;;;-0.39;79.95;100669.23;41884;1271;2015647;-61
2022/03/04 05:41:49;;;;;;;69.30;27.50;;;;;;;-0.42;80.28;100673.08;41749;1271;2016335;-60
2022/03/04 05:44:21;;;;;;;66.30;26.60;;;;;;;-0.45;80.25;100678.89;40388;1271;2016595;-60
2022/03/04 05:46:54;;;;;;;67.10;26.10;;;;;;;-0.47;80.23;100675.38;41022;1271;2015185;-60
2022/03/04 05:49:25;;;;;;;67.70;27.10;;;;;;;-0.48;80.43;100677.65;40278;1271;2015907;-58
2022/03/04 05:51:58;;;;;;;65.60;26.80;;;;;;;-0.48;80.59;100685.48;38762;1273;2016304;-59
2022/03/04 05:54:30;;;;;;;60.60;25.50;;;;;;;-0.49;80.53;100683.29;39576;1272;2016517;-60
2022/03/04 05:57:02;;;;;;;61.90;24.10;;;;;;;-0.49;80.64;100690.42;40343;1271;2016154;-59
2022/03/04 05:59:35;;;;;;;66.20;25.50;;;;;;;-0.48;80.57;100693.55;39686;1271;2015724;-58
2022/03/04 06:02:06;;;;;;;66.20;25.50;;;;;;;-0.47;80.78;100695.12;38972;1271;2019078;-60
2022/03/04 06:04:37;;;;;;;73.90;34.50;;;;;;;-0.45;80.87;100697.85;41053;1271;2016342;-59
2022/03/04 06:07:08;;;;;;;71.50;32.20;;;;;;;-0.40;80.68;100697.30;40887;1271;2016717;-58
2022/03/04 06:09:39;;;;;;;72.90;28.20;;;;;;;-0.41;80.83;100698.71;39539;1271;2018351;-58
2022/03/04 06:12:11;;;;;;;68.40;29.40;;;;;;;-0.43;80.92;100697.30;39595;1271;2016045;-61
2022/03/04 06:14:43;;;;;;;64.70;27.90;;;;;;;-0.43;80.79;100699.80;39622;1271;2016525;-59
2022/03/04 06:17:16;;;;;;;70.60;28.80;;;;;;;-0.44;81.04;100700.91;40148;1271;2016533;-62
2022/03/04 06:19:48;;;;;;;71.10;28.70;;;;;;;-0.44;81.02;100697.08;39609;1271;2016231;-62
2022/03/04 06:22:20;;;;;;;74.00;30.30;;;;;;;-0.42;80.91;100701.05;40197;1271;2016157;-62
2022/03/04 06:24:51;;;;;;;70.80;31.70;;;;;;;-0.40;81.07;100705.05;44054;1271;2015997;-61
2022/03/04 06:27:23;;;;;;;67.60;26.70;;;;;;;-0.39;81.10;100708.73;52800;1271;1016374;-63
2022/03/04 06:29:54;;;;;;;67.70;27.90;;;;;;;-0.38;81.14;100714.07;52801;1272;1017328;-61
2022/03/04 06:32:26;;;;;;;74.80;31.50;;;;;;;-0.37;81.17;100720.10;52794;1271;1016489;-62
2022/03/04 06:34:58;;;;;;;68.90;27.80;;;;;;;-0.35;81.15;100724.10;52752;1269;1017228;-61
2022/03/04 06:37:29;;;;;;;65.90;26.80;;;;;;;-0.34;81.28;100726.45;52862;1271;1016600;-63
2022/03/04 06:40:02;;;;;;;64.80;26.40;;;;;;;-0.32;81.45;100726.61;52688;1271;1016544;-61
2022/03/04 06:42:34;;;;;;;63.30;26.40;;;;;;;-0.30;81.52;100731.39;52715;1271;1016029;-61
2022/03/04 06:45:08;;;;;;;65.20;26.50;;;;;;;-0.30;81.47;100733.27;52711;1271;1016428;-60
2022/03/04 06:47:39;;;;;;;67.60;27.50;;;;;;;-0.29;81.38;100734.13;52486;1270;1016276;-59
2022/03/04 06:50:11;;;;;;;69.10;26.50;;;;;;;-0.27;81.56;100737.89;52519;1270;1016393;-60
2022/03/04 06:52:43;;;;;;;74.20;27.80;;;;;;;-0.25;81.51;100736.08;52588;1270;1016398;-59
2022/03/04 06:55:15;;;;;;;67.10;26.90;;;;;;;-0.23;81.67;100739.30;52514;1271;1015892;-59
2022/03/04 06:57:46;;;;;;;73.60;27.90;;;;;;;-0.21;81.75;100740.78;52473;1271;1015974;-59
2022/03/04 07:00:18;;;;;;;79.30;29.00;;;;;;;-0.20;81.82;100730.66;52415;1270;1016661;-59
2022/03/04 07:02:49;;;;;;;79.40;31.80;;;;;;;-0.18;81.91;100730.50;52528;1271;1016419;-60
2022/03/04 07:05:22;;;;;;;76.30;31.70;;;;;;;-0.16;81.77;100733.65;52599;1271;1016262;-60
2022/03/04 07:07:54;;;;;;;74.60;30.00;;;;;;;-0.14;81.96;100732.30;52580;1271;1016330;-60
2022/03/04 07:10:26;;;;;;;72.80;29.40;;;;;;;-0.12;82.16;100733.63;53441;1270;1015759;-60
2022/03/04 07:12:57;;;;;;;67.10;27.10;;;;;;;-0.10;81.93;100740.37;52583;1271;1015962;-60
2022/03/04 07:15:28;;;;;;;72.90;29.50;;;;;;;-0.08;81.94;100740.60;52548;1271;1017976;-60
2022/03/04 07:18:00;;;;;;;72.50;31.10;;;;;;;-0.06;81.93;100748.05;53261;1271;1016491;-60
2022/03/04 07:20:32;;;;;;;72.30;29.00;;;;;;;-0.03;81.96;100750.88;52762;1271;1019594;-59
2022/03/04 07:23:05;;;;;;;77.40;32.40;;;;;;;-0.01;81.98;100747.02;52791;1271;1016577;-59
2022/03/04 07:25:37;;;;;;;71.50;31.30;;;;;;;0.02;82.10;100747.10;52894;1271;1016289;-59
2022/03/04 07:28:10;;;;;;;73.20;30.20;;;;;;;0.04;82.04;100745.61;52667;1271;1016064;-58
2022/03/04 07:30:41;;;;;;;73.40;29.60;;;;;;;0.06;82.11;100747.02;52643;1270;1016006;-59
2022/03/04 07:33:13;;;;;;;75.60;31.30;;;;;;;0.08;82.26;100749.52;52653;1271;1018840;-59
2022/03/04 07:35:46;;;;;;;76.50;29.90;;;;;;;0.10;82.20;100748.64;52551;1271;1019017;-59
2022/03/04 07:38:18;;;;;;;73.30;31.50;;;;;;;0.14;82.14;100748.31;52623;1271;1016303;-59
2022/03/04 07:40:49;;;;;;;71.50;27.60;;;;;;;0.18;82.26;100752.70;52697;1271;1016388;-59
2022/03/04 07:43:22;;;;;;;79.00;33.80;;;;;;;0.21;82.19;100753.33;52828;1271;1016791;-60
2022/03/04 07:45:53;;;;;;;81.50;32.00;;;;;;;0.24;82.15;100760.36;52599;1271;1016501;-59
2022/03/04 07:48:27;;;;;;;78.00;31.20;;;;;;;0.29;82.15;100760.36;52509;1271;1017883;-60
2022/03/04 07:50:59;;;;;;;76.70;32.00;;;;;;;0.33;82.11;100764.73;52611;1271;1016536;-60
2022/03/04 07:53:31;;;;;;;78.20;31.90;;;;;;;0.37;82.00;100765.04;52693;1272;1016300;-60
2022/03/04 07:56:03;;;;;;;82.90;32.00;;;;;;;0.43;82.08;100763.68;52721;1271;1016598;-59
2022/03/04 07:58:35;;;;;;;77.10;33.40;;;;;;;0.47;81.87;100767.36;52560;1271;1018266;-60
2022/03/04 08:01:07;;;;;;;75.00;30.70;;;;;;;0.50;81.82;100770.09;52693;1272;1018503;-59
2022/03/04 08:03:39;;;;;;;83.50;34.90;;;;;;;0.53;81.81;100763.64;52628;1271;1016332;-60
2022/03/04 08:06:12;;;;;;;80.30;34.70;;;;;;;0.56;81.75;100768.52;52606;1271;1016619;-59
2022/03/04 08:08:43;;;;;;;88.60;32.80;;;;;;;0.59;81.81;100768.34;52572;1271;1016646;-60
2022/03/04 08:11:15;;;;;;;93.20;35.90;;;;;;;0.63;81.64;100767.77;52540;1271;1016726;-60
2022/03/04 08:13:46;;;;;;;78.80;32.40;;;;;;;0.67;81.82;100770.89;52609;1271;1016651;-59
2022/03/04 08:16:19;;;;;;;87.80;34.00;;;;;;;0.71;81.77;100771.50;52562;1271;1016479;-59
2022/03/04 08:18:51;;;;;;;83.10;35.10;;;;;;;0.76;81.88;100774.16;52557;1273;1016483;-60
2022/03/04 08:21:23;;;;;;;86.50;36.10;;;;;;;0.84;81.79;100778.81;52617;1270;1015898;-59
2022/03/04 08:23:56;;;;;;;85.30;34.70;;;;;;;0.91;81.85;100780.98;52699;1271;1016534;-59
2022/03/04 08:26:31;;;;;;;85.20;35.00;;;;;;;0.97;81.73;100787.72;52567;1271;1015884;-59
2022/03/04 08:29:02;;;;;;;89.10;38.10;;;;;;;1.01;81.59;100791.46;52579;1273;1015758;-59
2022/03/04 08:31:34;;;;;;;82.80;36.60;;;;;;;1.04;81.52;100796.15;52625;1271;1018872;-60
2022/03/04 08:34:06;;;;;;;83.70;35.50;;;;;;;1.07;81.51;100798.26;52520;1273;1016763;-60
2022/03/04 08:36:38;;;;;;;83.40;33.80;;;;;;;1.12;81.62;100802.25;52542;1271;1016447;-60
2022/03/04 08:39:11;;;;;;;84.20;37.00;;;;;;;1.16;81.48;100798.70;52603;1270;1017109;-59
2022/03/04 08:41:42;;;;;;;88.90;38.40;;;;;;;1.20;81.44;100802.97;52664;1271;1016209;-59
2022/03/04 08:44:14;;;;;;;81.90;34.60;;;;;;;1.27;81.52;100802.46;52575;1271;1016571;-59
2022/03/04 08:46:47;;;;;;;69.20;32.40;;;;;;;1.31;81.41;100798.43;52660;1273;1016708;-59
2022/03/04 08:49:19;;;;;;;90.90;37.70;;;;;;;1.35;81.33;100800.85;52630;1271;1017057;-59
2022/03/04 08:51:50;;;;;;;76.90;34.00;;;;;;;1.40;81.42;100801.76;52642;1271;1016572;-59
2022/03/04 08:54:22;;;;;;;75.00;32.50;;;;;;;1.47;81.41;100800.20;52553;1271;1016170;-60
2022/03/04 08:56:53;;;;;;;77.40;32.30;;;;;;;1.52;81.31;100803.02;52659;1271;1016052;-60
2022/03/04 08:59:25;;;;;;;74.60;31.00;;;;;;;1.56;81.24;100801.88;52574;1273;1016625;-60
2022/03/04 09:01:57;;;;;;;70.30;29.30;;;;;;;1.59;81.12;100796.27;52565;1272;1016631;-67
2022/03/04 09:04:29;;;;;;;75.90;32.70;;;;;;;1.59;80.86;100791.63;52552;1273;1016706;-60
2022/03/04 09:07:02;;;;;;;75.30;30.50;;;;;;;1.60;80.90;100793.98;52556;1272;1016257;-60
2022/03/04 09:09:33;;;;;;;65.00;28.60;;;;;;;1.62;80.98;100798.20;52646;1271;1016580;-60
2022/03/04 09:12:07;;;;;;;69.40;28.30;;;;;;;1.65;80.99;100793.70;52580;1272;1016473;-59
2022/03/04 09:14:38;;;;;;;61.20;25.50;;;;;;;1.69;81.02;100794.93;52561;1273;1016636;-60
2022/03/04 09:17:10;;;;;;;62.80;26.40;;;;;;;1.75;80.94;100797.64;52555;1272;1016577;-60
2022/03/04 09:19:41;;;;;;;57.50;24.60;;;;;;;1.78;80.80;100798.95;52548;1273;1016168;-59
2022/03/04 09:22:12;;;;;;;63.80;28.10;;;;;;;1.82;80.72;100804.34;52508;1271;1016433;-60
2022/03/04 09:24:44;;;;;;;68.60;29.00;;;;;;;1.87;81.00;100808.39;52646;1272;1016086;-60
2022/03/04 09:27:16;;;;;;;70.00;30.60;;;;;;;1.95;80.98;100813.04;52659;1271;1018942;-60
2022/03/04 09:29:47;;;;;;;63.30;28.30;;;;;;;2.03;80.96;100813.84;52602;1271;1018052;-60
2022/03/04 09:32:20;;;;;;;70.30;28.40;;;;;;;2.07;80.77;100813.48;52598;1271;1016381;-60
2022/03/04 09:34:54;;;;;;;70.80;29.80;;;;;;;2.13;80.86;100813.50;52736;1273;1016314;-60
2022/03/04 09:37:25;;;;;;;63.50;26.50;;;;;;;2.20;80.69;100818.16;52588;1271;1018245;-60
2022/03/04 09:39:57;;;;;;;60.40;25.20;;;;;;;2.24;80.69;100809.71;52555;1271;1016222;-60
2022/03/04 09:42:29;;;;;;;50.90;23.50;;;;;;;2.26;80.10;100810.85;52483;1272;1016550;-60
2022/03/04 09:45:01;;;;;;;54.30;23.40;;;;;;;2.25;80.01;100806.77;52549;1271;1016029;-60
2022/03/04 09:47:33;;;;;;;59.30;25.00;;;;;;;2.27;80.14;100808.58;52546;1271;1016497;-60
2022/03/04 09:50:07;;;;;;;56.10;23.80;;;;;;;2.30;80.32;100809.73;52560;1273;1016589;-60
2022/03/04 09:52:38;;;;;;;58.70;25.40;;;;;;;2.35;80.42;100808.25;52676;1273;1019235;-60
2022/03/04 09:55:11;;;;;;;60.10;25.00;;;;;;;2.44;80.40;100809.50;52567;1271;1016256;-60
2022/03/04 09:57:43;;;;;;;54.30;22.50;;;;;;;2.51;80.25;100809.48;52778;1271;1016389;-60
2022/03/04 10:00:17;;;;;;;61.90;26.50;;;;;;;2.55;80.04;100812.45;52648;1272;1016702;-60
2022/03/04 10:02:49;;;;;;;60.90;24.70;;;;;;;2.60;80.30;100812.15;52547;1270;1016775;-60
2022/03/04 10:05:21;;;;;;;48.50;19.40;;;;;;;2.65;80.16;100810.12;52583;1273;1016540;-60
2022/03/04 10:07:52;;;;;;;52.10;23.50;;;;;;;2.70;79.89;100816.29;52574;1273;1016676;-60
2022/03/04 10:10:24;;;;;;;56.60;23.70;;;;;;;2.74;79.73;100818.98;52680;1273;1016764;-60
2022/03/04 10:12:57;;;;;;;56.60;23.00;;;;;;;2.77;79.83;100822.02;52682;1271;1016378;-60
2022/03/04 10:15:29;;;;;;;51.40;23.30;;;;;;;2.81;79.64;100822.63;52518;1272;1016350;-60
2022/03/04 10:18:03;;;;;;;50.70;23.70;;;;;;;2.84;79.56;100819.02;52651;1273;1016500;-60
2022/03/04 10:20:41;;;;;;;50.80;22.70;;;;;;;2.86;79.65;100818.85;52560;1272;1016551;-60
2022/03/04 10:23:22;;;;;;;62.90;25.20;;;;;;;2.88;79.46;100820.64;52482;1271;1016630;-60
2022/03/04 10:25:56;;;;;;;54.20;24.60;;;;;;;2.86;79.26;100815.14;52584;1273;1016775;-60
2022/03/04 10:28:29;;;;;;;54.10;23.10;;;;;;;2.86;79.33;100813.73;52567;1271;1016442;-59
2022/03/04 10:31:01;;;;;;;52.40;22.10;;;;;;;2.86;79.26;100814.44;52706;1271;1016725;-60
2022/03/04 10:33:33;;;;;;;55.00;24.90;;;;;;;2.88;79.20;100823.93;52718;1271;1016371;-60
2022/03/04 10:36:12;;;;;;;51.80;21.80;;;;;;;2.88;79.04;100821.89;52614;1271;1016575;-60
2022/03/04 10:38:45;;;;;;;54.80;23.00;;;;;;;2.88;78.87;100816.45;52595;1273;1016676;-60
2022/03/04 10:41:29;;;;;;;56.50;21.90;;;;;;;2.92;79.06;100820.11;52483;1272;1018456;-60
2022/03/04 10:44:01;;;;;;;47.60;17.00;;;;;;;2.99;78.94;100811.84;52573;1271;1016619;-60
2022/03/04 10:46:56;;;;;;;38.30;15.00;;;;;;;3.03;78.71;100811.55;52546;1271;1016242;-60
2022/03/04 10:49:30;;;;;;;42.70;18.30;;;;;;;3.07;78.39;100815.20;52543;1272;1016492;-60
2022/03/04 10:52:09;;;;;;;36.20;14.70;;;;;;;3.13;78.53;100816.61;52499;1272;1016145;-60
2022/03/04 10:54:50;;;;;;;41.50;17.00;;;;;;;3.15;78.19;100821.31;52461;1271;1016303;-60
2022/03/04 10:57:22;;;;;;;45.00;20.40;;;;;;;3.18;78.44;100823.48;52647;1273;1016134;-60
2022/03/04 11:00:00;;;;;;;39.60;16.10;;;;;;;3.23;78.35;100824.50;52489;1271;1016599;-61
2022/03/04 11:02:45;;;;;;;45.50;18.00;;;;;;;3.23;78.07;100825.84;52597;1271;1018917;-60
2022/03/04 11:05:17;;;;;;;44.30;20.50;;;;;;;3.24;78.19;100826.46;52647;1273;1016491;-60
2022/03/04 11:07:49;;;;;;;44.30;20.00;;;;;;;3.26;78.15;100829.75;52607;1271;1016674;-60
2022/03/04 11:10:22;;;;;;;38.50;16.20;;;;;;;3.27;77.87;100830.98;52549;1271;1016493;-60
2022/03/04 11:12:55;;;;;;;50.70;19.70;;;;;;;3.25;77.73;100835.98;54369;1271;1015044;-60
2022/03/04 11:15:28;;;;;;;42.60;17.90;;;;;;;3.24;77.57;100834.49;52659;1272;1015945;-60
2022/03/04 11:18:04;;;;;;;50.70;19.60;;;;;;;3.21;77.58;100830.53;52577;1272;1017723;-60
2022/03/04 11:20:36;;;;;;;49.80;20.10;;;;;;;3.21;77.57;100828.88;52661;1272;1016168;-60